sensor_id;sensor_type;location;lat;lon;timestamp;pressure;altitude;pressure_sealevel;temperature;humidity
55418;BME280;41287;47.554;7.844;2023-08-08T00:01:00;98305.16;;;21.89;58.42
55418;BME280;41287;47.554;7.844;2023-08-08T00:03:26;98308.69;;;21.89;58.21
55418;BME280;41287;47.554;7.844;2023-08-08T00:05:53;98307.91;;;21.89;58.23
55418;BME280;41287;47.554;7.844;2023-08-08T00:08:18;98309.81;;;21.88;58.01
55418;BME280;41287;47.554;7.844;2023-08-08T00:10:44;98300.06;;;21.87;58.18
55418;BME280;41287;47.554;7.844;2023-08-08T00:13:09;98296.97;;;21.89;58.45
55418;BME280;41287;47.554;7.844;2023-08-08T00:15:34;98296.19;;;21.88;58.10
55418;BME280;41287;47.554;7.844;2023-08-08T00:18:00;98301.63;;;21.88;58.22
55418;BME280;41287;47.554;7.844;2023-08-08T00:20:26;98294.25;;;21.89;58.43
55418;BME280;41287;47.554;7.844;2023-08-08T00:22:51;98286.06;;;21.89;58.31
55418;BME280;41287;47.554;7.844;2023-08-08T00:25:16;98293.47;;;21.88;58.02
55418;BME280;41287;47.554;7.844;2023-08-08T00:27:41;98298.91;;;21.88;58.40
55418;BME280;41287;47.554;7.844;2023-08-08T00:30:10;98290.72;;;21.88;58.31
55418;BME280;41287;47.554;7.844;2023-08-08T00:32:36;98282.53;;;21.88;58.46
55418;BME280;41287;47.554;7.844;2023-08-08T00:35:01;98287.22;;;21.88;58.34
55418;BME280;41287;47.554;7.844;2023-08-08T00:37:28;98292.66;;;21.88;58.45
55418;BME280;41287;47.554;7.844;2023-08-08T00:39:53;98288.78;;;21.89;58.29
55418;BME280;41287;47.554;7.844;2023-08-08T00:42:19;98286.41;;;21.87;58.42
55418;BME280;41287;47.554;7.844;2023-08-08T00:44:44;98291.53;;;21.89;58.46
55418;BME280;41287;47.554;7.844;2023-08-08T00:47:09;98288.34;;;21.87;58.26
55418;BME280;41287;47.554;7.844;2023-08-08T00:49:37;98285.28;;;21.88;58.23
55418;BME280;41287;47.554;7.844;2023-08-08T00:52:31;98288.00;;;21.88;58.23
55418;BME280;41287;47.554;7.844;2023-08-08T00:55:21;98293.47;;;21.88;57.98
55418;BME280;41287;47.554;7.844;2023-08-08T00:58:12;98289.94;;;21.88;58.17
55418;BME280;41287;47.554;7.844;2023-08-08T01:01:03;98288.00;;;21.88;58.19
55418;BME280;41287;47.554;7.844;2023-08-08T01:03:54;98289.13;;;21.87;58.26
55418;BME280;41287;47.554;7.844;2023-08-08T01:06:28;98286.75;;;21.86;58.50
55418;BME280;41287;47.554;7.844;2023-08-08T01:08:57;98280.16;;;21.87;58.22
55418;BME280;41287;47.554;7.844;2023-08-08T01:11:27;98277.44;;;21.87;58.28
55418;BME280;41287;47.554;7.844;2023-08-08T01:13:54;98270.03;;;21.87;58.08
55418;BME280;41287;47.554;7.844;2023-08-08T01:16:21;98267.31;;;21.87;58.12
55418;BME280;41287;47.554;7.844;2023-08-08T01:18:47;98267.31;;;21.87;58.47
55418;BME280;41287;47.554;7.844;2023-08-08T01:21:15;98268.44;;;21.86;58.26
55418;BME280;41287;47.554;7.844;2023-08-08T01:23:42;98269.25;;;21.87;58.02
55418;BME280;41287;47.554;7.844;2023-08-08T01:26:08;98268.09;;;21.88;58.38
55418;BME280;41287;47.554;7.844;2023-08-08T01:28:34;98266.53;;;21.87;58.42
55418;BME280;41287;47.554;7.844;2023-08-08T01:31:02;98269.25;;;21.87;58.10
55418;BME280;41287;47.554;7.844;2023-08-08T01:33:27;98267.31;;;21.87;58.50
55418;BME280;41287;47.554;7.844;2023-08-08T01:35:58;98263.78;;;21.87;58.57
55418;BME280;41287;47.554;7.844;2023-08-08T01:38:32;98275.03;;;21.85;58.44
55418;BME280;41287;47.554;7.844;2023-08-08T01:40:59;98272.78;;;21.87;58.49
55418;BME280;41287;47.554;7.844;2023-08-08T01:43:25;98271.97;;;21.87;58.04
55418;BME280;41287;47.554;7.844;2023-08-08T01:45:52;98271.19;;;21.86;58.10
55418;BME280;41287;47.554;7.844;2023-08-08T01:48:17;98272.78;;;21.87;58.57
55418;BME280;41287;47.554;7.844;2023-08-08T01:50:43;98268.09;;;21.88;58.32
55418;BME280;41287;47.554;7.844;2023-08-08T01:53:08;98265.72;;;21.86;58.55
55418;BME280;41287;47.554;7.844;2023-08-08T01:55:36;98264.59;;;21.87;58.27
55418;BME280;41287;47.554;7.844;2023-08-08T01:58:05;98260.28;;;21.86;58.12
55418;BME280;41287;47.554;7.844;2023-08-08T02:00:31;98264.59;;;21.87;58.16
55418;BME280;41287;47.554;7.844;2023-08-08T02:02:56;98259.47;;;21.86;58.22
55418;BME280;41287;47.554;7.844;2023-08-08T02:05:21;98259.94;;;21.88;58.45
55418;BME280;41287;47.554;7.844;2023-08-08T02:07:47;98261.84;;;21.87;58.50
55418;BME280;41287;47.554;7.844;2023-08-08T02:10:12;98252.88;;;21.87;58.05
55418;BME280;41287;47.554;7.844;2023-08-08T02:12:39;98256.41;;;21.87;58.03
55418;BME280;41287;47.554;7.844;2023-08-08T02:15:05;98261.06;;;21.87;58.20
55418;BME280;41287;47.554;7.844;2023-08-08T02:17:31;98252.88;;;21.87;58.18
55418;BME280;41287;47.554;7.844;2023-08-08T02:19:56;98252.09;;;21.86;57.98
55418;BME280;41287;47.554;7.844;2023-08-08T02:22:22;98255.59;;;21.87;58.19
55418;BME280;41287;47.554;7.844;2023-08-08T02:24:47;98243.91;;;21.86;58.13
55418;BME280;41287;47.554;7.844;2023-08-08T02:27:12;98252.09;;;21.86;58.42
55418;BME280;41287;47.554;7.844;2023-08-08T02:29:40;98249.34;;;21.86;58.14
55418;BME280;41287;47.554;7.844;2023-08-08T02:32:08;98254.81;;;21.86;58.12
55418;BME280;41287;47.554;7.844;2023-08-08T02:34:34;98252.09;;;21.86;58.13
55418;BME280;41287;47.554;7.844;2023-08-08T02:36:59;98252.09;;;21.86;58.10
55418;BME280;41287;47.554;7.844;2023-08-08T02:39:24;98254.03;;;21.86;58.21
55418;BME280;41287;47.554;7.844;2023-08-08T02:41:50;98252.09;;;21.86;58.12
55418;BME280;41287;47.554;7.844;2023-08-08T02:44:15;98250.16;;;21.87;58.42
55418;BME280;41287;47.554;7.844;2023-08-08T02:46:40;98249.34;;;21.86;58.26
55418;BME280;41287;47.554;7.844;2023-08-08T02:49:06;98250.50;;;21.85;58.40
55418;BME280;41287;47.554;7.844;2023-08-08T02:51:31;98264.13;;;21.85;58.28
55418;BME280;41287;47.554;7.844;2023-08-08T02:53:57;98254.03;;;21.86;58.46
55418;BME280;41287;47.554;7.844;2023-08-08T02:56:22;98255.94;;;21.85;58.32
55418;BME280;41287;47.554;7.844;2023-08-08T02:58:47;98259.47;;;21.86;58.28
55418;BME280;41287;47.554;7.844;2023-08-08T03:01:13;98258.69;;;21.85;58.16
55418;BME280;41287;47.554;7.844;2023-08-08T03:03:40;98260.28;;;21.86;58.11
55418;BME280;41287;47.554;7.844;2023-08-08T03:06:05;98260.28;;;21.86;58.60
55418;BME280;41287;47.554;7.844;2023-08-08T03:08:33;98256.75;;;21.86;58.12
55418;BME280;41287;47.554;7.844;2023-08-08T03:20:53;98248.13;;;21.84;58.17
55418;BME280;41287;47.554;7.844;2023-08-08T03:23:19;98250.84;;;21.84;58.23
55418;BME280;41287;47.554;7.844;2023-08-08T03:25:44;98259.03;;;21.84;58.43
55418;BME280;41287;47.554;7.844;2023-08-08T03:28:10;98261.75;;;21.84;58.52
55418;BME280;41287;47.554;7.844;2023-08-08T03:30:38;98260.19;;;21.83;58.23
55418;BME280;41287;47.554;7.844;2023-08-08T03:33:04;98254.34;;;21.84;58.44
55418;BME280;41287;47.554;7.844;2023-08-08T03:35:31;98259.81;;;21.84;58.41
55418;BME280;41287;47.554;7.844;2023-08-08T03:37:57;98254.34;;;21.84;58.49
55418;BME280;41287;47.554;7.844;2023-08-08T03:40:22;98251.63;;;21.84;58.35
55418;BME280;41287;47.554;7.844;2023-08-08T03:42:47;98253.56;;;21.84;58.17
55418;BME280;41287;47.554;7.844;2023-08-08T03:45:13;98254.34;;;21.84;58.14
55418;BME280;41287;47.554;7.844;2023-08-08T03:47:38;98256.28;;;21.84;58.29
55418;BME280;41287;47.554;7.844;2023-08-08T03:50:05;98257.88;;;21.85;58.16
55418;BME280;41287;47.554;7.844;2023-08-08T03:52:30;98262.53;;;21.84;58.54
55418;BME280;41287;47.554;7.844;2023-08-08T03:54:56;98255.53;;;21.83;58.28
55418;BME280;41287;47.554;7.844;2023-08-08T03:57:21;98263.72;;;21.83;58.02
55418;BME280;41287;47.554;7.844;2023-08-08T03:59:46;98265.28;;;21.84;58.01
55418;BME280;41287;47.554;7.844;2023-08-08T04:02:12;98268.00;;;21.84;58.47
55418;BME280;41287;47.554;7.844;2023-08-08T04:04:37;98276.19;;;21.84;58.33
55418;BME280;41287;47.554;7.844;2023-08-08T04:07:05;98269.16;;;21.83;58.37
55418;BME280;41287;47.554;7.844;2023-08-08T04:09:31;98272.66;;;21.84;58.26
55418;BME280;41287;47.554;7.844;2023-08-08T04:11:56;98271.91;;;21.83;58.52
55418;BME280;41287;47.554;7.844;2023-08-08T04:14:22;98264.47;;;21.84;58.12
55418;BME280;41287;47.554;7.844;2023-08-08T04:16:47;98272.66;;;21.84;58.43
55418;BME280;41287;47.554;7.844;2023-08-08T04:19:14;98282.44;;;21.85;58.22
55418;BME280;41287;47.554;7.844;2023-08-08T04:21:41;98278.50;;;21.82;58.16
55418;BME280;41287;47.554;7.844;2023-08-08T04:24:07;98280.84;;;21.84;58.44
55418;BME280;41287;47.554;7.844;2023-08-08T04:26:33;98286.69;;;21.82;58.08
55418;BME280;41287;47.554;7.844;2023-08-08T04:28:58;98282.81;;;21.83;58.37
55418;BME280;41287;47.554;7.844;2023-08-08T04:31:24;98286.31;;;21.84;57.88
55418;BME280;41287;47.554;7.844;2023-08-08T04:33:51;98280.50;;;21.85;58.33
55418;BME280;41287;47.554;7.844;2023-08-08T04:36:16;98280.09;;;21.83;58.30
55418;BME280;41287;47.554;7.844;2023-08-08T04:38:42;98285.53;;;21.83;58.29
55418;BME280;41287;47.554;7.844;2023-08-08T04:41:07;98276.56;;;21.83;58.00
55418;BME280;41287;47.554;7.844;2023-08-08T04:43:32;98278.50;;;21.82;58.34
55418;BME280;41287;47.554;7.844;2023-08-08T04:45:58;98280.84;;;21.84;58.40
55418;BME280;41287;47.554;7.844;2023-08-08T04:48:23;98279.28;;;21.83;58.44
55418;BME280;41287;47.554;7.844;2023-08-08T04:50:48;98273.03;;;21.82;58.24
55418;BME280;41287;47.554;7.844;2023-08-08T04:53:15;98274.63;;;21.83;58.38
55418;BME280;41287;47.554;7.844;2023-08-08T04:55:41;98270.31;;;21.82;58.37
55418;BME280;41287;47.554;7.844;2023-08-08T04:58:06;98275.38;;;21.84;58.09
55418;BME280;41287;47.554;7.844;2023-08-08T05:00:31;98279.28;;;21.83;58.12
55418;BME280;41287;47.554;7.844;2023-08-08T05:02:57;98288.25;;;21.83;58.37
55418;BME280;41287;47.554;7.844;2023-08-08T05:05:22;98288.25;;;21.83;57.92
55418;BME280;41287;47.554;7.844;2023-08-08T05:07:47;98286.69;;;21.82;58.30
55418;BME280;41287;47.554;7.844;2023-08-08T05:10:13;98291.00;;;21.83;58.44
55418;BME280;41287;47.554;7.844;2023-08-08T05:12:39;98289.03;;;21.84;58.35
55418;BME280;41287;47.554;7.844;2023-08-08T05:15:04;98296.44;;;21.83;58.38
55418;BME280;41287;47.554;7.844;2023-08-08T05:17:30;98285.88;;;21.82;58.31
55418;BME280;41287;47.554;7.844;2023-08-08T05:19:57;98294.06;;;21.82;58.35
55418;BME280;41287;47.554;7.844;2023-08-08T05:22:22;98293.25;;;21.81;58.31
55418;BME280;41287;47.554;7.844;2023-08-08T05:24:48;98296.78;;;21.82;58.35
55418;BME280;41287;47.554;7.844;2023-08-08T05:27:13;98286.69;;;21.82;58.50
55418;BME280;41287;47.554;7.844;2023-08-08T05:29:39;98287.81;;;21.81;58.03
55418;BME280;41287;47.554;7.844;2023-08-08T05:32:07;98280.09;;;21.83;58.28
55418;BME280;41287;47.554;7.844;2023-08-08T05:34:33;98282.34;;;21.81;58.10
55418;BME280;41287;47.554;7.844;2023-08-08T05:36:58;98283.94;;;21.82;58.23
55418;BME280;41287;47.554;7.844;2023-08-08T05:39:24;98285.09;;;21.81;58.13
55418;BME280;41287;47.554;7.844;2023-08-08T05:41:49;98279.63;;;21.81;58.07
55418;BME280;41287;47.554;7.844;2023-08-08T05:44:15;98272.25;;;21.82;58.11
55418;BME280;41287;47.554;7.844;2023-08-08T05:46:40;98274.97;;;21.82;58.14
55418;BME280;41287;47.554;7.844;2023-08-08T05:49:05;98271.44;;;21.81;58.45
55418;BME280;41287;47.554;7.844;2023-08-08T05:51:31;98277.69;;;21.82;58.22
55418;BME280;41287;47.554;7.844;2023-08-08T05:53:57;98274.97;;;21.82;58.50
55418;BME280;41287;47.554;7.844;2023-08-08T05:56:22;98283.16;;;21.82;58.48
55418;BME280;41287;47.554;7.844;2023-08-08T05:58:48;98282.34;;;21.81;58.21
55418;BME280;41287;47.554;7.844;2023-08-08T06:01:13;98285.09;;;21.81;58.15
55418;BME280;41287;47.554;7.844;2023-08-08T06:03:38;98278.03;;;21.80;58.10
55418;BME280;41287;47.554;7.844;2023-08-08T06:06:04;98279.63;;;21.81;58.35
55418;BME280;41287;47.554;7.844;2023-08-08T06:08:30;98286.22;;;21.80;58.23
55418;BME280;41287;47.554;7.844;2023-08-08T06:10:58;98282.69;;;21.80;58.51
55418;BME280;41287;47.554;7.844;2023-08-08T06:13:24;98280.78;;;21.80;58.45
55418;BME280;41287;47.554;7.844;2023-08-08T06:15:51;98284.28;;;21.81;58.09
55418;BME280;41287;47.554;7.844;2023-08-08T06:18:16;98287.81;;;21.81;58.32
55418;BME280;41287;47.554;7.844;2023-08-08T06:20:42;98293.25;;;21.81;58.08
55418;BME280;41287;47.554;7.844;2023-08-08T06:23:08;98287.81;;;21.81;57.94
55418;BME280;41287;47.554;7.844;2023-08-08T06:25:33;98278.03;;;21.80;58.23
55418;BME280;41287;47.554;7.844;2023-08-08T06:27:59;98278.03;;;21.80;58.45
55418;BME280;41287;47.554;7.844;2023-08-08T06:30:24;98275.31;;;21.80;58.11
55418;BME280;41287;47.554;7.844;2023-08-08T06:32:49;98273.38;;;21.81;58.18
55418;BME280;41287;47.554;7.844;2023-08-08T06:35:15;98280.78;;;21.80;58.17
55418;BME280;41287;47.554;7.844;2023-08-08T06:37:42;98278.03;;;21.80;58.17
55418;BME280;41287;47.554;7.844;2023-08-08T06:40:08;98283.50;;;21.80;58.28
55418;BME280;41287;47.554;7.844;2023-08-08T06:42:34;98275.31;;;21.80;58.07
55418;BME280;41287;47.554;7.844;2023-08-08T06:44:59;98277.25;;;21.80;58.05
55418;BME280;41287;47.554;7.844;2023-08-08T06:47:27;98273.72;;;21.79;58.42
55418;BME280;41287;47.554;7.844;2023-08-08T06:49:52;98269.41;;;21.78;58.39
55418;BME280;41287;47.554;7.844;2023-08-08T06:52:18;98264.41;;;21.80;58.16
55418;BME280;41287;47.554;7.844;2023-08-08T06:54:43;98266.34;;;21.80;58.53
55418;BME280;41287;47.554;7.844;2023-08-08T06:57:08;98257.69;;;21.78;58.46
55418;BME280;41287;47.554;7.844;2023-08-08T06:59:35;98259.28;;;21.79;58.48
55418;BME280;41287;47.554;7.844;2023-08-08T07:02:28;98262.81;;;21.79;58.11
55418;BME280;41287;47.554;7.844;2023-08-08T07:04:57;98264.41;;;21.80;58.10
55418;BME280;41287;47.554;7.844;2023-08-08T07:07:22;98271.00;;;21.79;58.27
55418;BME280;41287;47.554;7.844;2023-08-08T07:09:48;98263.59;;;21.80;58.13
55418;BME280;41287;47.554;7.844;2023-08-08T07:12:14;98262.81;;;21.79;58.97
55418;BME280;41287;47.554;7.844;2023-08-08T07:14:39;98266.69;;;21.78;58.31
55418;BME280;41287;47.554;7.844;2023-08-08T07:17:04;98266.34;;;21.80;58.03
55418;BME280;41287;47.554;7.844;2023-08-08T07:19:30;98273.72;;;21.79;58.36
55418;BME280;41287;47.554;7.844;2023-08-08T07:21:56;98265.53;;;21.79;58.05
55418;BME280;41287;47.554;7.844;2023-08-08T07:24:21;98260.09;;;21.79;58.32
55418;BME280;41287;47.554;7.844;2023-08-08T07:26:46;98260.44;;;21.78;58.17
55418;BME280;41287;47.554;7.844;2023-08-08T07:29:12;98271.34;;;21.78;58.41
55418;BME280;41287;47.554;7.844;2023-08-08T07:31:37;98254.97;;;21.78;58.31
55418;BME280;41287;47.554;7.844;2023-08-08T07:34:02;98254.19;;;21.77;58.13
55418;BME280;41287;47.554;7.844;2023-08-08T07:36:30;98247.59;;;21.78;58.09
55418;BME280;41287;47.554;7.844;2023-08-08T07:38:57;98254.97;;;21.78;58.39
55418;BME280;41287;47.554;7.844;2023-08-08T07:41:26;98247.59;;;21.78;58.34
55418;BME280;41287;47.554;7.844;2023-08-08T07:43:52;98254.97;;;21.78;58.06
55418;BME280;41287;47.554;7.844;2023-08-08T07:46:17;98250.31;;;21.78;58.25
55418;BME280;41287;47.554;7.844;2023-08-08T07:48:42;98248.72;;;21.77;58.07
55418;BME280;41287;47.554;7.844;2023-08-08T07:51:08;98241.34;;;21.78;58.32
55418;BME280;41287;47.554;7.844;2023-08-08T07:53:35;98240.53;;;21.77;58.11
55418;BME280;41287;47.554;7.844;2023-08-08T07:56:00;98240.53;;;21.77;57.94
55418;BME280;41287;47.554;7.844;2023-08-08T07:58:26;98232.34;;;21.77;58.47
55418;BME280;41287;47.554;7.844;2023-08-08T08:00:52;98238.59;;;21.78;58.35
55418;BME280;41287;47.554;7.844;2023-08-08T08:03:19;98246.00;;;21.77;58.14
55418;BME280;41287;47.554;7.844;2023-08-08T08:05:44;98246.00;;;21.77;57.99
55418;BME280;41287;47.554;7.844;2023-08-08T08:08:10;98241.72;;;21.76;58.35
55418;BME280;41287;47.554;7.844;2023-08-08T08:10:35;98230.78;;;21.76;58.29
55418;BME280;41287;47.554;7.844;2023-08-08T08:13:00;98237.03;;;21.77;58.42
55418;BME280;41287;47.554;7.844;2023-08-08T08:32:14;98235.81;;;21.74;58.57
55418;BME280;41287;47.554;7.844;2023-08-08T08:34:42;98238.53;;;21.74;58.44
55418;BME280;41287;47.554;7.844;2023-08-08T08:37:09;98233.06;;;21.74;58.42
55418;BME280;41287;47.554;7.844;2023-08-08T08:39:34;98232.28;;;21.74;58.33
55418;BME280;41287;47.554;7.844;2023-08-08T08:42:00;98239.31;;;21.75;58.43
55418;BME280;41287;47.554;7.844;2023-08-08T08:44:31;98234.66;;;21.75;58.56
55418;BME280;41287;47.554;7.844;2023-08-08T08:47:00;98228.41;;;21.75;58.34
55418;BME280;41287;47.554;7.844;2023-08-08T08:49:28;98225.69;;;21.75;58.08
55418;BME280;41287;47.554;7.844;2023-08-08T08:51:55;98225.69;;;21.75;58.45
55418;BME280;41287;47.554;7.844;2023-08-08T08:54:21;98229.22;;;21.75;58.42
55418;BME280;41287;47.554;7.844;2023-08-08T08:56:49;98228.41;;;21.75;58.36
55418;BME280;41287;47.554;7.844;2023-08-08T08:59:15;98226.47;;;21.75;58.27
55418;BME280;41287;47.554;7.844;2023-08-08T09:01:40;98226.47;;;21.75;58.51
55418;BME280;41287;47.554;7.844;2023-08-08T09:04:07;98228.06;;;21.76;58.14
55418;BME280;41287;47.554;7.844;2023-08-08T09:06:33;98218.28;;;21.75;58.41
55418;BME280;41287;47.554;7.844;2023-08-08T09:08:58;98212.06;;;21.75;58.45
55418;BME280;41287;47.554;7.844;2023-08-08T09:11:24;98216.72;;;21.74;58.48
55418;BME280;41287;47.554;7.844;2023-08-08T09:13:50;98221.03;;;21.75;58.27
55418;BME280;41287;47.554;7.844;2023-08-08T09:16:16;98210.91;;;21.76;58.26
55418;BME280;41287;47.554;7.844;2023-08-08T09:18:41;98213.97;;;21.74;58.07
55418;BME280;41287;47.554;7.844;2023-08-08T09:21:08;98204.66;;;21.75;58.38
55418;BME280;41287;47.554;7.844;2023-08-08T09:23:33;98210.91;;;21.76;58.47
55418;BME280;41287;47.554;7.844;2023-08-08T09:25:59;98208.97;;;21.76;58.14
55418;BME280;41287;47.554;7.844;2023-08-08T09:28:24;98199.19;;;21.75;58.19
55418;BME280;41287;47.554;7.844;2023-08-08T09:30:52;98204.66;;;21.75;58.49
55418;BME280;41287;47.554;7.844;2023-08-08T09:33:18;98199.19;;;21.75;58.61
55418;BME280;41287;47.554;7.844;2023-08-08T09:35:44;98204.66;;;21.75;58.01
55418;BME280;41287;47.554;7.844;2023-08-08T09:38:10;98198.41;;;21.75;58.23
55418;BME280;41287;47.554;7.844;2023-08-08T09:40:35;98194.09;;;21.74;58.14
55418;BME280;41287;47.554;7.844;2023-08-08T09:43:01;98196.03;;;21.73;58.41
55418;BME280;41287;47.554;7.844;2023-08-08T09:45:35;98199.56;;;21.74;58.46
55418;BME280;41287;47.554;7.844;2023-08-08T09:48:01;98194.88;;;21.74;58.30
55418;BME280;41287;47.554;7.844;2023-08-08T09:50:26;98189.44;;;21.74;58.41
55418;BME280;41287;47.554;7.844;2023-08-08T09:52:54;98182.84;;;21.75;58.17
55418;BME280;41287;47.554;7.844;2023-08-08T09:55:22;98180.13;;;21.75;58.35
55418;BME280;41287;47.554;7.844;2023-08-08T09:57:48;98184.44;;;21.76;58.32
55418;BME280;41287;47.554;7.844;2023-08-08T10:00:14;98183.63;;;21.76;58.42
55418;BME280;41287;47.554;7.844;2023-08-08T10:02:45;98175.78;;;21.74;58.20
55418;BME280;41287;47.554;7.844;2023-08-08T10:05:11;98171.13;;;21.75;58.51
55418;BME280;41287;47.554;7.844;2023-08-08T10:07:39;98168.41;;;21.75;58.41
55418;BME280;41287;47.554;7.844;2023-08-08T10:10:06;98165.69;;;21.75;58.15
55418;BME280;41287;47.554;7.844;2023-08-08T10:12:32;98171.13;;;21.75;58.58
55418;BME280;41287;47.554;7.844;2023-08-08T10:14:58;98168.41;;;21.75;58.28
55418;BME280;41287;47.554;7.844;2023-08-08T10:17:23;98162.16;;;21.74;58.22
55418;BME280;41287;47.554;7.844;2023-08-08T10:19:55;98160.56;;;21.73;58.63
55418;BME280;41287;47.554;7.844;2023-08-08T10:22:22;98162.94;;;21.75;58.24
55418;BME280;41287;47.554;7.844;2023-08-08T10:24:51;98160.22;;;21.75;58.15
55418;BME280;41287;47.554;7.844;2023-08-08T10:27:27;98157.06;;;21.73;58.37
55418;BME280;41287;47.554;7.844;2023-08-08T10:29:54;98162.16;;;21.74;58.39
55418;BME280;41287;47.554;7.844;2023-08-08T10:32:24;98162.50;;;21.73;58.40
55418;BME280;41287;47.554;7.844;2023-08-08T10:34:55;98157.84;;;21.73;58.02
55418;BME280;41287;47.554;7.844;2023-08-08T10:37:26;98163.31;;;21.73;58.23
55418;BME280;41287;47.554;7.844;2023-08-08T10:39:58;98165.22;;;21.73;58.53
55418;BME280;41287;47.554;7.844;2023-08-08T10:42:25;98150.47;;;21.74;58.36
55418;BME280;41287;47.554;7.844;2023-08-08T10:44:52;98149.31;;;21.75;58.34
55418;BME280;41287;47.554;7.844;2023-08-08T10:47:25;98148.88;;;21.73;58.17
55418;BME280;41287;47.554;7.844;2023-08-08T10:50:14;98148.06;;;21.72;58.42
55418;BME280;41287;47.554;7.844;2023-08-08T10:55:25;98143.41;;;21.73;58.46
55418;BME280;41287;47.554;7.844;2023-08-08T11:00:28;98152.38;;;21.73;58.57
55418;BME280;41287;47.554;7.844;2023-08-08T11:02:54;98152.38;;;21.73;58.27
55418;BME280;41287;47.554;7.844;2023-08-08T11:05:22;98142.28;;;21.74;58.10
55418;BME280;41287;47.554;7.844;2023-08-08T11:07:47;98138.41;;;21.75;58.16
55418;BME280;41287;47.554;7.844;2023-08-08T11:10:14;98148.88;;;21.73;58.51
55418;BME280;41287;47.554;7.844;2023-08-08T11:12:40;98143.41;;;21.73;58.24
55418;BME280;41287;47.554;7.844;2023-08-08T11:15:05;98137.16;;;21.72;58.08
55418;BME280;41287;47.554;7.844;2023-08-08T11:17:32;98130.56;;;21.73;58.42
55418;BME280;41287;47.554;7.844;2023-08-08T11:19:57;98134.44;;;21.72;58.23
55418;BME280;41287;47.554;7.844;2023-08-08T11:22:22;98142.28;;;21.74;58.09
55418;BME280;41287;47.554;7.844;2023-08-08T11:24:49;98136.03;;;21.73;58.34
55418;BME280;41287;47.554;7.844;2023-08-08T11:27:15;98138.75;;;21.73;58.24
55418;BME280;41287;47.554;7.844;2023-08-08T11:29:40;98133.31;;;21.73;58.44
55418;BME280;41287;47.554;7.844;2023-08-08T11:32:06;98129.78;;;21.73;58.22
55418;BME280;41287;47.554;7.844;2023-08-08T11:34:32;98127.84;;;21.73;58.42
55418;BME280;41287;47.554;7.844;2023-08-08T11:36:59;98136.81;;;21.74;58.30
55418;BME280;41287;47.554;7.844;2023-08-08T11:39:26;98129.44;;;21.74;58.46
55418;BME280;41287;47.554;7.844;2023-08-08T11:41:52;98122.38;;;21.73;58.20
55418;BME280;41287;47.554;7.844;2023-08-08T11:44:18;98124.31;;;21.73;58.19
55418;BME280;41287;47.554;7.844;2023-08-08T11:46:46;98129.78;;;21.73;58.49
55418;BME280;41287;47.554;7.844;2023-08-08T11:49:15;98127.84;;;21.73;58.29
55418;BME280;41287;47.554;7.844;2023-08-08T11:51:43;98117.72;;;21.74;58.29
55418;BME280;41287;47.554;7.844;2023-08-08T11:54:09;98122.38;;;21.73;58.14
55418;BME280;41287;47.554;7.844;2023-08-08T11:56:35;98122.38;;;21.73;58.14
55418;BME280;41287;47.554;7.844;2023-08-08T11:59:02;98121.59;;;21.73;58.22
55418;BME280;41287;47.554;7.844;2023-08-08T12:01:28;98125.13;;;21.73;58.46
55418;BME280;41287;47.554;7.844;2023-08-08T12:03:54;98129.78;;;21.73;58.24
55418;BME280;41287;47.554;7.844;2023-08-08T12:06:20;98127.06;;;21.73;58.39
55418;BME280;41287;47.554;7.844;2023-08-08T12:08:46;98125.91;;;21.74;58.16
55418;BME280;41287;47.554;7.844;2023-08-08T12:11:13;98128.63;;;21.74;58.45
55418;BME280;41287;47.554;7.844;2023-08-08T12:13:42;98120.47;;;21.74;58.35
55418;BME280;41287;47.554;7.844;2023-08-08T12:16:11;98125.91;;;21.74;58.41
55418;BME280;41287;47.554;7.844;2023-08-08T12:18:37;98118.88;;;21.73;58.10
55418;BME280;41287;47.554;7.844;2023-08-08T12:21:08;98120.47;;;21.74;58.14
55418;BME280;41287;47.554;7.844;2023-08-08T12:23:35;98122.38;;;21.73;58.29
55418;BME280;41287;47.554;7.844;2023-08-08T12:26:03;98127.84;;;21.73;58.31
55418;BME280;41287;47.554;7.844;2023-08-08T12:28:30;98124.31;;;21.73;58.44
55418;BME280;41287;47.554;7.844;2023-08-08T12:30:55;98120.81;;;21.72;58.53
55418;BME280;41287;47.554;7.844;2023-08-08T12:33:21;98114.22;;;21.73;58.51
55418;BME280;41287;47.554;7.844;2023-08-08T12:35:47;98114.22;;;21.73;58.42
55418;BME280;41287;47.554;7.844;2023-08-08T12:38:15;98114.22;;;21.73;58.48
55418;BME280;41287;47.554;7.844;2023-08-08T12:40:44;98116.94;;;21.73;58.27
55418;BME280;41287;47.554;7.844;2023-08-08T12:43:10;98113.06;;;21.74;58.42
55418;BME280;41287;47.554;7.844;2023-08-08T12:45:39;98120.47;;;21.74;58.38
55418;BME280;41287;47.554;7.844;2023-08-08T12:48:04;98116.94;;;21.73;58.16
55418;BME280;41287;47.554;7.844;2023-08-08T12:50:29;98120.47;;;21.74;58.20
55418;BME280;41287;47.554;7.844;2023-08-08T12:52:57;98118.88;;;21.73;58.07
55418;BME280;41287;47.554;7.844;2023-08-08T12:55:22;98121.25;;;21.74;58.00
55418;BME280;41287;47.554;7.844;2023-08-08T12:57:48;98116.94;;;21.73;58.46
55418;BME280;41287;47.554;7.844;2023-08-08T13:00:15;98108.75;;;21.73;58.39
55418;BME280;41287;47.554;7.844;2023-08-08T13:02:43;98102.16;;;21.74;58.17
55418;BME280;41287;47.554;7.844;2023-08-08T13:05:34;98097.03;;;21.73;58.32
55418;BME280;41287;47.554;7.844;2023-08-08T13:08:25;98100.56;;;21.73;58.39
55418;BME280;41287;47.554;7.844;2023-08-08T13:10:54;98098.19;;;21.72;58.16
55418;BME280;41287;47.554;7.844;2023-08-08T13:13:20;98096.25;;;21.72;58.17
55418;BME280;41287;47.554;7.844;2023-08-08T13:15:48;98088.88;;;21.73;58.15
55418;BME280;41287;47.554;7.844;2023-08-08T13:18:13;98091.59;;;21.73;58.39
55418;BME280;41287;47.554;7.844;2023-08-08T13:20:39;98093.19;;;21.74;58.20
55418;BME280;41287;47.554;7.844;2023-08-08T13:23:05;98095.13;;;21.73;58.24
55418;BME280;41287;47.554;7.844;2023-08-08T13:25:30;98088.88;;;21.73;58.14
55418;BME280;41287;47.554;7.844;2023-08-08T13:27:56;98097.84;;;21.73;58.10
55418;BME280;41287;47.554;7.844;2023-08-08T13:30:21;98092.72;;;21.72;58.40